Terminal Aerodrome Forecast
Issued by NWS Cleveland, OH

Current Version | Previous Version | Text Only | Print | Product List | Glossary On
Versions: 1 2 3 4 5 6 7 8 9 10 11 12 13 14 15 16 17 18 19 20 21 22 23 24 25 26 27 28
000
FTUS41 KCLE 260608 AAA
TAFCLE
TAF AMD
KCLE 260608Z 2606/2712 27012KT 4SM -SHSN BKN027 OVC040
      TEMPO 2606/2607 1SM -SHSN OVC025
     FM260700 28010KT 5SM -SHSN SCT027 OVC040
     FM260900 26012KT P6SM OVC025
     FM261600 23008KT P6SM BKN035
     FM261900 21015G25KT P6SM SCT035 BKN070
     FM270000 21010KT P6SM SCT070=

USA.gov is the U.S. government's official web portal to all federal, state and local government web resources and services.